sensor_id;sensor_type;location;lat;lon;timestamp;P1;durP1;ratioP1;P2;durP2;ratioP2
3405;SDS011;10008;48.682;9.016;2022-10-23T00:00:35;8.90;;;4.30;;
3405;SDS011;10008;48.682;9.016;2022-10-23T00:03:04;6.83;;;3.30;;
3405;SDS011;10008;48.682;9.016;2022-10-23T00:05:30;14.67;;;4.27;;
3405;SDS011;10008;48.682;9.016;2022-10-23T00:07:57;8.77;;;3.33;;
3405;SDS011;10008;48.682;9.016;2022-10-23T00:10:24;10.43;;;4.30;;
3405;SDS011;10008;48.682;9.016;2022-10-23T00:12:51;8.53;;;4.27;;
3405;SDS011;10008;48.682;9.016;2022-10-23T00:15:18;14.40;;;6.33;;
3405;SDS011;10008;48.682;9.016;2022-10-23T00:17:45;10.50;;;6.20;;
3405;SDS011;10008;48.682;9.016;2022-10-23T00:20:12;9.93;;;4.10;;
3405;SDS011;10008;48.682;9.016;2022-10-23T00:22:39;6.43;;;3.53;;
3405;SDS011;10008;48.682;9.016;2022-10-23T00:25:06;8.60;;;3.97;;
3405;SDS011;10008;48.682;9.016;2022-10-23T00:27:33;6.73;;;3.63;;
3405;SDS011;10008;48.682;9.016;2022-10-23T00:29:59;8.27;;;3.63;;
3405;SDS011;10008;48.682;9.016;2022-10-23T00:32:26;7.73;;;2.83;;
3405;SDS011;10008;48.682;9.016;2022-10-23T00:34:52;6.80;;;3.73;;
3405;SDS011;10008;48.682;9.016;2022-10-23T00:37:18;8.80;;;3.37;;
3405;SDS011;10008;48.682;9.016;2022-10-23T00:39:44;10.70;;;4.37;;
3405;SDS011;10008;48.682;9.016;2022-10-23T00:42:14;9.13;;;4.40;;
3405;SDS011;10008;48.682;9.016;2022-10-23T00:47:07;9.77;;;4.17;;
3405;SDS011;10008;48.682;9.016;2022-10-23T00:49:34;6.30;;;4.20;;
3405;SDS011;10008;48.682;9.016;2022-10-23T00:52:02;8.23;;;4.10;;
3405;SDS011;10008;48.682;9.016;2022-10-23T00:54:41;8.10;;;3.97;;
3405;SDS011;10008;48.682;9.016;2022-10-23T00:57:10;8.13;;;3.80;;
3405;SDS011;10008;48.682;9.016;2022-10-23T00:59:37;10.03;;;3.80;;
3405;SDS011;10008;48.682;9.016;2022-10-23T01:02:05;7.93;;;3.73;;
3405;SDS011;10008;48.682;9.016;2022-10-23T01:04:32;9.20;;;3.40;;
3405;SDS011;10008;48.682;9.016;2022-10-23T01:07:04;7.60;;;3.83;;
3405;SDS011;10008;48.682;9.016;2022-10-23T01:09:54;11.57;;;4.37;;
3405;SDS011;10008;48.682;9.016;2022-10-23T01:12:49;6.57;;;3.80;;
3405;SDS011;10008;48.682;9.016;2022-10-23T01:15:34;13.40;;;4.03;;
3405;SDS011;10008;48.682;9.016;2022-10-23T01:20:59;8.80;;;3.43;;
3405;SDS011;10008;48.682;9.016;2022-10-23T01:23:45;11.50;;;3.17;;
3405;SDS011;10008;48.682;9.016;2022-10-23T01:26:16;8.60;;;2.60;;
3405;SDS011;10008;48.682;9.016;2022-10-23T01:28:58;6.20;;;3.10;;
3405;SDS011;10008;48.682;9.016;2022-10-23T01:31:47;15.53;;;3.30;;
3405;SDS011;10008;48.682;9.016;2022-10-23T01:34:19;8.53;;;3.80;;
3405;SDS011;10008;48.682;9.016;2022-10-23T01:36:52;8.10;;;3.60;;
3405;SDS011;10008;48.682;9.016;2022-10-23T01:39:33;8.40;;;3.37;;
3405;SDS011;10008;48.682;9.016;2022-10-23T01:42:12;6.90;;;3.00;;
3405;SDS011;10008;48.682;9.016;2022-10-23T01:44:44;5.90;;;2.90;;
3405;SDS011;10008;48.682;9.016;2022-10-23T01:47:24;9.37;;;3.30;;
3405;SDS011;10008;48.682;9.016;2022-10-23T01:50:00;9.70;;;3.43;;
3405;SDS011;10008;48.682;9.016;2022-10-23T01:52:30;6.53;;;2.83;;
3405;SDS011;10008;48.682;9.016;2022-10-23T01:54:57;6.40;;;3.10;;
3405;SDS011;10008;48.682;9.016;2022-10-23T01:57:27;6.33;;;3.20;;
3405;SDS011;10008;48.682;9.016;2022-10-23T01:59:57;9.50;;;3.10;;
3405;SDS011;10008;48.682;9.016;2022-10-23T02:02:28;5.63;;;2.90;;
3405;SDS011;10008;48.682;9.016;2022-10-23T02:04:57;6.23;;;3.00;;
3405;SDS011;10008;48.682;9.016;2022-10-23T02:07:27;5.70;;;2.50;;
3405;SDS011;10008;48.682;9.016;2022-10-23T02:09:53;6.17;;;2.90;;
3405;SDS011;10008;48.682;9.016;2022-10-23T02:14:59;7.23;;;3.20;;
3405;SDS011;10008;48.682;9.016;2022-10-23T02:20:45;6.80;;;3.13;;
3405;SDS011;10008;48.682;9.016;2022-10-23T02:23:28;9.80;;;3.40;;
3405;SDS011;10008;48.682;9.016;2022-10-23T02:28:32;7.40;;;2.67;;
3405;SDS011;10008;48.682;9.016;2022-10-23T02:31:03;9.47;;;3.43;;
3405;SDS011;10008;48.682;9.016;2022-10-23T02:33:32;5.47;;;2.63;;
3405;SDS011;10008;48.682;9.016;2022-10-23T02:36:00;6.87;;;2.33;;
3405;SDS011;10008;48.682;9.016;2022-10-23T02:38:34;7.03;;;3.10;;
3405;SDS011;10008;48.682;9.016;2022-10-23T02:41:07;5.87;;;2.90;;
3405;SDS011;10008;48.682;9.016;2022-10-23T02:46:52;7.00;;;3.20;;
3405;SDS011;10008;48.682;9.016;2022-10-23T02:52:15;8.20;;;2.90;;
3405;SDS011;10008;48.682;9.016;2022-10-23T02:54:50;7.30;;;3.00;;
3405;SDS011;10008;48.682;9.016;2022-10-23T02:57:21;7.47;;;3.03;;
3405;SDS011;10008;48.682;9.016;2022-10-23T03:00:00;8.37;;;2.80;;
3405;SDS011;10008;48.682;9.016;2022-10-23T03:02:34;7.60;;;2.90;;
3405;SDS011;10008;48.682;9.016;2022-10-23T03:05:15;9.53;;;2.70;;
3405;SDS011;10008;48.682;9.016;2022-10-23T03:07:46;9.00;;;3.20;;
3405;SDS011;10008;48.682;9.016;2022-10-23T03:10:15;6.23;;;3.40;;
3405;SDS011;10008;48.682;9.016;2022-10-23T03:12:40;9.60;;;2.90;;
3405;SDS011;10008;48.682;9.016;2022-10-23T03:15:06;8.80;;;3.63;;
3405;SDS011;10008;48.682;9.016;2022-10-23T03:17:33;6.53;;;3.20;;
3405;SDS011;10008;48.682;9.016;2022-10-23T03:19:59;8.00;;;3.50;;
3405;SDS011;10008;48.682;9.016;2022-10-23T03:22:24;6.00;;;3.40;;
3405;SDS011;10008;48.682;9.016;2022-10-23T03:24:50;11.53;;;3.80;;
3405;SDS011;10008;48.682;9.016;2022-10-23T03:27:16;7.87;;;3.50;;
3405;SDS011;10008;48.682;9.016;2022-10-23T03:29:41;11.87;;;3.57;;
3405;SDS011;10008;48.682;9.016;2022-10-23T03:32:07;6.30;;;3.17;;
3405;SDS011;10008;48.682;9.016;2022-10-23T03:34:33;10.63;;;3.10;;
3405;SDS011;10008;48.682;9.016;2022-10-23T03:37:02;6.70;;;2.73;;
3405;SDS011;10008;48.682;9.016;2022-10-23T03:39:28;10.30;;;3.30;;
3405;SDS011;10008;48.682;9.016;2022-10-23T03:41:55;11.37;;;3.40;;
3405;SDS011;10008;48.682;9.016;2022-10-23T03:44:20;4.90;;;2.90;;
3405;SDS011;10008;48.682;9.016;2022-10-23T03:46:46;7.63;;;3.73;;
3405;SDS011;10008;48.682;9.016;2022-10-23T03:49:12;7.10;;;3.63;;
3405;SDS011;10008;48.682;9.016;2022-10-23T03:51:41;11.80;;;3.70;;
3405;SDS011;10008;48.682;9.016;2022-10-23T03:54:08;5.77;;;3.30;;
3405;SDS011;10008;48.682;9.016;2022-10-23T03:56:36;6.30;;;3.20;;
3405;SDS011;10008;48.682;9.016;2022-10-23T03:59:02;7.77;;;3.13;;
3405;SDS011;10008;48.682;9.016;2022-10-23T04:01:28;9.47;;;2.87;;
3405;SDS011;10008;48.682;9.016;2022-10-23T04:03:54;6.27;;;3.00;;
3405;SDS011;10008;48.682;9.016;2022-10-23T04:06:21;7.93;;;3.27;;
3405;SDS011;10008;48.682;9.016;2022-10-23T04:08:47;6.73;;;2.90;;
3405;SDS011;10008;48.682;9.016;2022-10-23T04:11:15;10.17;;;3.90;;
3405;SDS011;10008;48.682;9.016;2022-10-23T04:13:44;9.50;;;3.63;;
3405;SDS011;10008;48.682;9.016;2022-10-23T04:16:10;8.13;;;2.87;;
3405;SDS011;10008;48.682;9.016;2022-10-23T04:18:36;6.90;;;3.17;;
3405;SDS011;10008;48.682;9.016;2022-10-23T04:21:04;9.63;;;3.97;;
3405;SDS011;10008;48.682;9.016;2022-10-23T04:23:31;6.97;;;3.50;;
3405;SDS011;10008;48.682;9.016;2022-10-23T04:25:57;8.23;;;3.90;;
3405;SDS011;10008;48.682;9.016;2022-10-23T04:28:24;6.73;;;3.40;;
3405;SDS011;10008;48.682;9.016;2022-10-23T04:30:50;5.27;;;3.00;;
3405;SDS011;10008;48.682;9.016;2022-10-23T04:33:16;12.70;;;3.90;;
3405;SDS011;10008;48.682;9.016;2022-10-23T04:35:42;6.40;;;3.23;;
3405;SDS011;10008;48.682;9.016;2022-10-23T04:38:09;6.93;;;3.50;;
3405;SDS011;10008;48.682;9.016;2022-10-23T04:40:35;7.30;;;3.63;;
3405;SDS011;10008;48.682;9.016;2022-10-23T04:43:01;7.00;;;3.30;;
3405;SDS011;10008;48.682;9.016;2022-10-23T04:45:32;6.07;;;3.40;;
3405;SDS011;10008;48.682;9.016;2022-10-23T04:47:57;6.63;;;3.30;;
3405;SDS011;10008;48.682;9.016;2022-10-23T04:50:24;5.47;;;3.30;;
3405;SDS011;10008;48.682;9.016;2022-10-23T04:53:19;6.47;;;2.90;;
3405;SDS011;10008;48.682;9.016;2022-10-23T04:55:57;7.60;;;3.23;;
3405;SDS011;10008;48.682;9.016;2022-10-23T04:58:33;8.03;;;3.50;;
3405;SDS011;10008;48.682;9.016;2022-10-23T05:00:59;8.73;;;3.40;;
3405;SDS011;10008;48.682;9.016;2022-10-23T05:03:27;7.67;;;3.70;;
3405;SDS011;10008;48.682;9.016;2022-10-23T05:05:53;9.93;;;3.40;;
3405;SDS011;10008;48.682;9.016;2022-10-23T05:08:40;6.10;;;3.00;;
3405;SDS011;10008;48.682;9.016;2022-10-23T05:11:18;5.50;;;2.90;;
3405;SDS011;10008;48.682;9.016;2022-10-23T05:13:46;9.13;;;2.67;;
3405;SDS011;10008;48.682;9.016;2022-10-23T05:16:13;6.50;;;2.93;;
3405;SDS011;10008;48.682;9.016;2022-10-23T05:19:02;5.50;;;3.30;;
3405;SDS011;10008;48.682;9.016;2022-10-23T05:21:29;5.50;;;3.10;;
3405;SDS011;10008;48.682;9.016;2022-10-23T05:23:58;7.07;;;3.47;;
3405;SDS011;10008;48.682;9.016;2022-10-23T05:26:26;7.43;;;3.00;;
3405;SDS011;10008;48.682;9.016;2022-10-23T05:28:53;8.83;;;3.80;;
3405;SDS011;10008;48.682;9.016;2022-10-23T05:31:18;11.43;;;3.90;;
3405;SDS011;10008;48.682;9.016;2022-10-23T05:33:49;6.53;;;3.13;;
3405;SDS011;10008;48.682;9.016;2022-10-23T05:36:18;5.40;;;2.77;;
3405;SDS011;10008;48.682;9.016;2022-10-23T05:38:44;8.80;;;3.90;;
3405;SDS011;10008;48.682;9.016;2022-10-23T05:41:16;8.07;;;3.10;;
3405;SDS011;10008;48.682;9.016;2022-10-23T05:43:42;6.90;;;3.50;;
3405;SDS011;10008;48.682;9.016;2022-10-23T05:46:28;7.07;;;3.87;;
3405;SDS011;10008;48.682;9.016;2022-10-23T05:49:18;8.57;;;3.40;;
3405;SDS011;10008;48.682;9.016;2022-10-23T05:51:53;6.03;;;3.27;;
3405;SDS011;10008;48.682;9.016;2022-10-23T05:54:51;8.83;;;2.97;;
3405;SDS011;10008;48.682;9.016;2022-10-23T05:57:34;6.07;;;2.90;;
3405;SDS011;10008;48.682;9.016;2022-10-23T06:00:04;7.57;;;2.90;;
3405;SDS011;10008;48.682;9.016;2022-10-23T06:02:39;5.50;;;3.10;;
3405;SDS011;10008;48.682;9.016;2022-10-23T06:05:15;5.90;;;3.60;;
3405;SDS011;10008;48.682;9.016;2022-10-23T06:08:10;6.33;;;3.20;;
3405;SDS011;10008;48.682;9.016;2022-10-23T06:10:36;8.53;;;3.40;;
3405;SDS011;10008;48.682;9.016;2022-10-23T06:13:05;9.13;;;4.07;;
3405;SDS011;10008;48.682;9.016;2022-10-23T06:15:31;6.70;;;3.70;;
3405;SDS011;10008;48.682;9.016;2022-10-23T06:18:18;7.10;;;4.13;;
3405;SDS011;10008;48.682;9.016;2022-10-23T06:20:54;10.40;;;4.90;;
3405;SDS011;10008;48.682;9.016;2022-10-23T06:23:24;11.23;;;5.10;;
3405;SDS011;10008;48.682;9.016;2022-10-23T06:26:02;8.00;;;5.67;;
3405;SDS011;10008;48.682;9.016;2022-10-23T06:28:46;8.10;;;5.20;;
3405;SDS011;10008;48.682;9.016;2022-10-23T06:31:13;9.17;;;4.97;;
3405;SDS011;10008;48.682;9.016;2022-10-23T06:33:40;10.03;;;5.03;;
3405;SDS011;10008;48.682;9.016;2022-10-23T06:36:07;11.70;;;5.17;;
3405;SDS011;10008;48.682;9.016;2022-10-23T06:38:36;8.50;;;5.70;;
3405;SDS011;10008;48.682;9.016;2022-10-23T06:41:05;7.97;;;5.67;;
3405;SDS011;10008;48.682;9.016;2022-10-23T06:43:36;7.40;;;5.60;;
3405;SDS011;10008;48.682;9.016;2022-10-23T06:46:20;24.60;;;17.13;;
3405;SDS011;10008;48.682;9.016;2022-10-23T06:49:24;42.37;;;31.57;;
3405;SDS011;10008;48.682;9.016;2022-10-23T06:51:53;18.60;;;12.80;;
3405;SDS011;10008;48.682;9.016;2022-10-23T06:54:20;13.93;;;8.77;;
3405;SDS011;10008;48.682;9.016;2022-10-23T06:56:48;13.13;;;8.13;;
3405;SDS011;10008;48.682;9.016;2022-10-23T06:59:19;17.47;;;11.40;;
3405;SDS011;10008;48.682;9.016;2022-10-23T07:01:48;11.40;;;8.10;;
3405;SDS011;10008;48.682;9.016;2022-10-23T07:04:14;8.60;;;5.13;;
3405;SDS011;10008;48.682;9.016;2022-10-23T07:06:41;11.73;;;5.67;;
3405;SDS011;10008;48.682;9.016;2022-10-23T07:09:08;15.73;;;8.47;;
3405;SDS011;10008;48.682;9.016;2022-10-23T07:11:52;10.63;;;5.63;;
3405;SDS011;10008;48.682;9.016;2022-10-23T07:14:23;10.07;;;5.73;;
3405;SDS011;10008;48.682;9.016;2022-10-23T07:16:49;12.17;;;6.83;;
3405;SDS011;10008;48.682;9.016;2022-10-23T07:19:15;9.53;;;4.73;;
3405;SDS011;10008;48.682;9.016;2022-10-23T07:21:52;7.90;;;3.97;;
3405;SDS011;10008;48.682;9.016;2022-10-23T07:24:42;7.77;;;5.03;;
3405;SDS011;10008;48.682;9.016;2022-10-23T07:27:20;6.83;;;3.50;;
3405;SDS011;10008;48.682;9.016;2022-10-23T07:29:52;7.93;;;3.60;;
3405;SDS011;10008;48.682;9.016;2022-10-23T07:32:18;7.30;;;3.50;;
3405;SDS011;10008;48.682;9.016;2022-10-23T07:34:53;8.40;;;3.70;;
3405;SDS011;10008;48.682;9.016;2022-10-23T07:37:24;5.83;;;3.20;;
3405;SDS011;10008;48.682;9.016;2022-10-23T07:39:50;6.50;;;3.40;;
3405;SDS011;10008;48.682;9.016;2022-10-23T07:42:15;6.67;;;3.77;;
3405;SDS011;10008;48.682;9.016;2022-10-23T07:44:41;7.70;;;3.20;;
3405;SDS011;10008;48.682;9.016;2022-10-23T07:47:08;8.00;;;3.33;;
3405;SDS011;10008;48.682;9.016;2022-10-23T07:49:34;8.60;;;3.90;;
3405;SDS011;10008;48.682;9.016;2022-10-23T07:52:00;5.97;;;3.27;;
3405;SDS011;10008;48.682;9.016;2022-10-23T07:54:35;12.80;;;4.50;;
3405;SDS011;10008;48.682;9.016;2022-10-23T07:57:18;7.63;;;3.70;;
3405;SDS011;10008;48.682;9.016;2022-10-23T07:59:47;6.50;;;3.93;;
3405;SDS011;10008;48.682;9.016;2022-10-23T08:02:17;8.77;;;2.90;;
3405;SDS011;10008;48.682;9.016;2022-10-23T08:04:47;6.50;;;3.57;;
3405;SDS011;10008;48.682;9.016;2022-10-23T08:07:35;6.67;;;3.73;;
3405;SDS011;10008;48.682;9.016;2022-10-23T08:10:02;6.27;;;2.83;;
3405;SDS011;10008;48.682;9.016;2022-10-23T08:12:29;9.00;;;4.90;;
3405;SDS011;10008;48.682;9.016;2022-10-23T08:14:55;11.90;;;4.17;;
3405;SDS011;10008;48.682;9.016;2022-10-23T08:17:22;7.10;;;4.03;;
3405;SDS011;10008;48.682;9.016;2022-10-23T08:19:57;5.27;;;1.70;;
3405;SDS011;10008;48.682;9.016;2022-10-23T08:22:26;7.17;;;2.40;;
3405;SDS011;10008;48.682;9.016;2022-10-23T08:24:52;4.73;;;1.80;;
3405;SDS011;10008;48.682;9.016;2022-10-23T08:27:19;11.43;;;9.37;;
3405;SDS011;10008;48.682;9.016;2022-10-23T08:29:46;6.73;;;2.60;;
3405;SDS011;10008;48.682;9.016;2022-10-23T08:32:12;7.60;;;2.10;;
3405;SDS011;10008;48.682;9.016;2022-10-23T08:35:01;5.27;;;2.30;;
3405;SDS011;10008;48.682;9.016;2022-10-23T08:37:29;6.40;;;2.50;;
3405;SDS011;10008;48.682;9.016;2022-10-23T08:39:55;7.63;;;2.30;;
3405;SDS011;10008;48.682;9.016;2022-10-23T08:42:28;5.10;;;2.13;;
3405;SDS011;10008;48.682;9.016;2022-10-23T08:45:19;6.00;;;2.40;;
3405;SDS011;10008;48.682;9.016;2022-10-23T08:48:09;5.30;;;2.20;;
3405;SDS011;10008;48.682;9.016;2022-10-23T08:53:52;3.90;;;1.80;;
3405;SDS011;10008;48.682;9.016;2022-10-23T08:56:27;5.40;;;1.80;;
3405;SDS011;10008;48.682;9.016;2022-10-23T08:58:59;4.30;;;1.70;;
3405;SDS011;10008;48.682;9.016;2022-10-23T09:01:45;4.40;;;1.60;;
3405;SDS011;10008;48.682;9.016;2022-10-23T09:04:16;5.53;;;1.30;;
3405;SDS011;10008;48.682;9.016;2022-10-23T09:12:04;5.77;;;1.30;;
3405;SDS011;10008;48.682;9.016;2022-10-23T09:19:37;4.73;;;1.10;;
3405;SDS011;10008;48.682;9.016;2022-10-23T09:22:03;3.30;;;0.90;;
3405;SDS011;10008;48.682;9.016;2022-10-23T09:24:30;7.40;;;1.60;;
3405;SDS011;10008;48.682;9.016;2022-10-23T09:26:58;5.20;;;1.10;;
3405;SDS011;10008;48.682;9.016;2022-10-23T09:29:33;4.10;;;1.10;;
3405;SDS011;10008;48.682;9.016;2022-10-23T09:32:03;3.87;;;1.10;;
3405;SDS011;10008;48.682;9.016;2022-10-23T09:34:31;4.70;;;1.13;;
3405;SDS011;10008;48.682;9.016;2022-10-23T09:36:59;3.40;;;0.70;;
3405;SDS011;10008;48.682;9.016;2022-10-23T09:39:28;3.10;;;0.60;;
3405;SDS011;10008;48.682;9.016;2022-10-23T09:41:56;5.10;;;0.70;;
3405;SDS011;10008;48.682;9.016;2022-10-23T09:44:24;3.10;;;0.70;;
3405;SDS011;10008;48.682;9.016;2022-10-23T09:47:00;4.13;;;0.60;;
3405;SDS011;10008;48.682;9.016;2022-10-23T09:49:38;3.30;;;0.60;;
3405;SDS011;10008;48.682;9.016;2022-10-23T09:54:43;3.70;;;0.70;;
3405;SDS011;10008;48.682;9.016;2022-10-23T09:59:49;8.90;;;0.90;;
3405;SDS011;10008;48.682;9.016;2022-10-23T10:02:25;3.70;;;0.73;;
3405;SDS011;10008;48.682;9.016;2022-10-23T10:22:15;3.43;;;0.60;;
3405;SDS011;10008;48.682;9.016;2022-10-23T10:25:15;3.03;;;0.60;;
3405;SDS011;10008;48.682;9.016;2022-10-23T10:38:50;3.57;;;0.70;;
3405;SDS011;10008;48.682;9.016;2022-10-23T10:52:29;3.40;;;0.80;;
3405;SDS011;10008;48.682;9.016;2022-10-23T10:57:43;4.40;;;0.70;;
3405;SDS011;10008;48.682;9.016;2022-10-23T11:00:19;3.53;;;0.80;;
3405;SDS011;10008;48.682;9.016;2022-10-23T11:02:54;4.07;;;0.90;;
3405;SDS011;10008;48.682;9.016;2022-10-23T11:08:17;8.43;;;0.90;;
3405;SDS011;10008;48.682;9.016;2022-10-23T11:10:48;2.90;;;0.60;;
3405;SDS011;10008;48.682;9.016;2022-10-23T11:15:59;3.33;;;0.70;;
3405;SDS011;10008;48.682;9.016;2022-10-23T11:18:29;3.63;;;0.63;;
3405;SDS011;10008;48.682;9.016;2022-10-23T11:21:04;3.50;;;0.87;;
3405;SDS011;10008;48.682;9.016;2022-10-23T11:23:51;3.87;;;0.80;;
3405;SDS011;10008;48.682;9.016;2022-10-23T11:29:27;7.17;;;0.70;;
3405;SDS011;10008;48.682;9.016;2022-10-23T11:37:30;3.03;;;0.60;;
3405;SDS011;10008;48.682;9.016;2022-10-23T11:42:44;3.43;;;0.80;;
3405;SDS011;10008;48.682;9.016;2022-10-23T11:50:55;4.00;;;1.10;;
3405;SDS011;10008;48.682;9.016;2022-10-23T11:53:23;3.20;;;0.70;;
3405;SDS011;10008;48.682;9.016;2022-10-23T11:58:44;3.63;;;0.80;;
3405;SDS011;10008;48.682;9.016;2022-10-23T12:01:23;3.80;;;0.80;;
3405;SDS011;10008;48.682;9.016;2022-10-23T12:06:26;6.23;;;0.80;;
3405;SDS011;10008;48.682;9.016;2022-10-23T12:11:48;4.43;;;0.80;;
3405;SDS011;10008;48.682;9.016;2022-10-23T12:16:51;4.33;;;1.30;;
3405;SDS011;10008;48.682;9.016;2022-10-23T12:19:19;3.70;;;0.70;;
3405;SDS011;10008;48.682;9.016;2022-10-23T12:21:49;3.20;;;0.70;;
3405;SDS011;10008;48.682;9.016;2022-10-23T12:29:35;7.27;;;1.90;;
3405;SDS011;10008;48.682;9.016;2022-10-23T12:32:12;6.27;;;1.37;;
3405;SDS011;10008;48.682;9.016;2022-10-23T12:40:18;4.63;;;0.80;;
3405;SDS011;10008;48.682;9.016;2022-10-23T12:42:52;4.63;;;0.70;;
3405;SDS011;10008;48.682;9.016;2022-10-23T12:45:29;5.27;;;0.97;;
3405;SDS011;10008;48.682;9.016;2022-10-23T12:48:01;5.80;;;1.20;;
3405;SDS011;10008;48.682;9.016;2022-10-23T12:50:28;4.23;;;0.70;;
3405;SDS011;10008;48.682;9.016;2022-10-23T12:55:23;7.00;;;1.37;;
3405;SDS011;10008;48.682;9.016;2022-10-23T12:57:51;3.57;;;0.87;;
3405;SDS011;10008;48.682;9.016;2022-10-23T13:00:21;3.47;;;1.00;;
3405;SDS011;10008;48.682;9.016;2022-10-23T13:02:58;3.93;;;1.00;;
3405;SDS011;10008;48.682;9.016;2022-10-23T13:05:25;5.77;;;1.03;;
3405;SDS011;10008;48.682;9.016;2022-10-23T13:07:52;5.50;;;1.00;;
3405;SDS011;10008;48.682;9.016;2022-10-23T13:10:26;5.10;;;1.80;;
3405;SDS011;10008;48.682;9.016;2022-10-23T13:12:57;4.07;;;0.90;;
3405;SDS011;10008;48.682;9.016;2022-10-23T13:16:11;3.73;;;0.83;;
3405;SDS011;10008;48.682;9.016;2022-10-23T13:18:21;3.10;;;0.70;;
3405;SDS011;10008;48.682;9.016;2022-10-23T13:23:16;5.47;;;0.90;;
3405;SDS011;10008;48.682;9.016;2022-10-23T13:25:52;4.30;;;0.90;;
3405;SDS011;10008;48.682;9.016;2022-10-23T13:30:57;3.37;;;0.80;;
3405;SDS011;10008;48.682;9.016;2022-10-23T13:33:33;4.37;;;0.87;;
3405;SDS011;10008;48.682;9.016;2022-10-23T13:36:01;3.50;;;0.90;;
3405;SDS011;10008;48.682;9.016;2022-10-23T13:38:45;3.40;;;0.80;;
3405;SDS011;10008;48.682;9.016;2022-10-23T13:41:22;4.95;;;1.20;;
3405;SDS011;10008;48.682;9.016;2022-10-23T13:43:49;3.40;;;0.90;;
3405;SDS011;10008;48.682;9.016;2022-10-23T13:48:41;3.50;;;1.00;;
3405;SDS011;10008;48.682;9.016;2022-10-23T13:51:11;5.90;;;1.30;;
3405;SDS011;10008;48.682;9.016;2022-10-23T13:53:43;4.70;;;0.77;;
3405;SDS011;10008;48.682;9.016;2022-10-23T13:56:10;4.53;;;0.80;;
3405;SDS011;10008;48.682;9.016;2022-10-23T13:58:38;3.40;;;0.80;;
3405;SDS011;10008;48.682;9.016;2022-10-23T14:01:04;3.80;;;0.80;;
3405;SDS011;10008;48.682;9.016;2022-10-23T14:03:30;4.57;;;1.20;;
3405;SDS011;10008;48.682;9.016;2022-10-23T14:05:56;7.50;;;1.70;;
3405;SDS011;10008;48.682;9.016;2022-10-23T14:08:22;6.90;;;2.93;;
3405;SDS011;10008;48.682;9.016;2022-10-23T14:10:48;6.40;;;3.90;;
3405;SDS011;10008;48.682;9.016;2022-10-23T14:13:14;6.20;;;3.57;;
3405;SDS011;10008;48.682;9.016;2022-10-23T14:15:41;8.03;;;3.10;;
3405;SDS011;10008;48.682;9.016;2022-10-23T14:18:07;8.30;;;5.70;;
3405;SDS011;10008;48.682;9.016;2022-10-23T14:20:33;7.73;;;3.70;;
3405;SDS011;10008;48.682;9.016;2022-10-23T14:22:58;6.40;;;2.13;;
3405;SDS011;10008;48.682;9.016;2022-10-23T14:25:24;19.57;;;7.77;;
3405;SDS011;10008;48.682;9.016;2022-10-23T14:27:50;26.00;;;16.47;;
3405;SDS011;10008;48.682;9.016;2022-10-23T14:30:15;4.20;;;1.10;;
3405;SDS011;10008;48.682;9.016;2022-10-23T14:32:41;4.30;;;1.20;;
3405;SDS011;10008;48.682;9.016;2022-10-23T14:35:07;4.20;;;1.47;;
3405;SDS011;10008;48.682;9.016;2022-10-23T14:37:33;5.40;;;2.10;;
3405;SDS011;10008;48.682;9.016;2022-10-23T14:39:59;4.53;;;1.73;;
3405;SDS011;10008;48.682;9.016;2022-10-23T14:42:25;4.73;;;1.50;;
3405;SDS011;10008;48.682;9.016;2022-10-23T14:44:51;4.17;;;1.40;;
3405;SDS011;10008;48.682;9.016;2022-10-23T14:47:17;6.30;;;3.70;;
3405;SDS011;10008;48.682;9.016;2022-10-23T14:49:44;5.60;;;2.40;;
3405;SDS011;10008;48.682;9.016;2022-10-23T14:52:13;3.83;;;1.20;;
3405;SDS011;10008;48.682;9.016;2022-10-23T14:54:39;8.63;;;3.87;;
3405;SDS011;10008;48.682;9.016;2022-10-23T14:57:04;6.23;;;1.10;;
3405;SDS011;10008;48.682;9.016;2022-10-23T14:59:30;3.90;;;1.23;;
3405;SDS011;10008;48.682;9.016;2022-10-23T15:01:56;5.23;;;1.97;;
3405;SDS011;10008;48.682;9.016;2022-10-23T15:04:22;5.13;;;2.60;;
3405;SDS011;10008;48.682;9.016;2022-10-23T15:06:48;6.30;;;2.90;;
3405;SDS011;10008;48.682;9.016;2022-10-23T15:09:14;5.30;;;1.77;;
3405;SDS011;10008;48.682;9.016;2022-10-23T15:11:39;8.57;;;1.70;;
3405;SDS011;10008;48.682;9.016;2022-10-23T15:14:05;7.77;;;2.70;;
3405;SDS011;10008;48.682;9.016;2022-10-23T15:16:31;5.60;;;2.40;;
3405;SDS011;10008;48.682;9.016;2022-10-23T15:18:57;7.07;;;2.30;;
3405;SDS011;10008;48.682;9.016;2022-10-23T15:21:23;3.77;;;1.30;;
3405;SDS011;10008;48.682;9.016;2022-10-23T15:23:49;8.80;;;1.83;;
3405;SDS011;10008;48.682;9.016;2022-10-23T15:26:15;5.20;;;1.53;;
3405;SDS011;10008;48.682;9.016;2022-10-23T15:28:46;4.07;;;1.00;;
3405;SDS011;10008;48.682;9.016;2022-10-23T15:31:22;6.27;;;1.07;;
3405;SDS011;10008;48.682;9.016;2022-10-23T15:33:55;4.97;;;1.40;;
3405;SDS011;10008;48.682;9.016;2022-10-23T15:36:21;5.60;;;1.20;;
3405;SDS011;10008;48.682;9.016;2022-10-23T15:38:47;6.00;;;1.17;;
3405;SDS011;10008;48.682;9.016;2022-10-23T15:41:15;4.10;;;1.10;;
3405;SDS011;10008;48.682;9.016;2022-10-23T15:43:46;5.47;;;1.57;;
3405;SDS011;10008;48.682;9.016;2022-10-23T15:46:11;7.20;;;2.23;;
3405;SDS011;10008;48.682;9.016;2022-10-23T15:48:37;8.20;;;2.30;;
3405;SDS011;10008;48.682;9.016;2022-10-23T15:51:03;5.60;;;2.43;;
3405;SDS011;10008;48.682;9.016;2022-10-23T15:53:29;7.77;;;2.60;;
3405;SDS011;10008;48.682;9.016;2022-10-23T15:55:54;14.90;;;11.10;;
3405;SDS011;10008;48.682;9.016;2022-10-23T15:58:23;4.47;;;1.80;;
3405;SDS011;10008;48.682;9.016;2022-10-23T16:00:49;5.27;;;1.90;;
3405;SDS011;10008;48.682;9.016;2022-10-23T16:03:15;5.40;;;1.90;;
3405;SDS011;10008;48.682;9.016;2022-10-23T16:05:40;4.43;;;1.67;;
3405;SDS011;10008;48.682;9.016;2022-10-23T16:08:06;6.60;;;2.17;;
3405;SDS011;10008;48.682;9.016;2022-10-23T16:10:32;5.37;;;1.97;;
3405;SDS011;10008;48.682;9.016;2022-10-23T16:13:02;7.33;;;1.70;;
3405;SDS011;10008;48.682;9.016;2022-10-23T16:15:28;10.23;;;1.70;;
3405;SDS011;10008;48.682;9.016;2022-10-23T16:17:53;5.33;;;1.67;;
3405;SDS011;10008;48.682;9.016;2022-10-23T16:20:19;6.60;;;1.50;;
3405;SDS011;10008;48.682;9.016;2022-10-23T16:22:45;6.67;;;1.80;;
3405;SDS011;10008;48.682;9.016;2022-10-23T16:25:11;4.30;;;1.73;;
3405;SDS011;10008;48.682;9.016;2022-10-23T16:27:36;6.70;;;2.10;;
3405;SDS011;10008;48.682;9.016;2022-10-23T16:30:02;6.13;;;1.70;;
3405;SDS011;10008;48.682;9.016;2022-10-23T16:32:31;5.10;;;1.67;;
3405;SDS011;10008;48.682;9.016;2022-10-23T16:34:57;8.30;;;1.47;;
3405;SDS011;10008;48.682;9.016;2022-10-23T16:37:23;5.87;;;2.00;;
3405;SDS011;10008;48.682;9.016;2022-10-23T16:40:02;4.63;;;1.70;;
3405;SDS011;10008;48.682;9.016;2022-10-23T16:42:47;4.43;;;1.60;;
3405;SDS011;10008;48.682;9.016;2022-10-23T16:45:28;5.20;;;2.60;;
3405;SDS011;10008;48.682;9.016;2022-10-23T16:47:54;6.50;;;2.90;;
3405;SDS011;10008;48.682;9.016;2022-10-23T16:50:19;7.43;;;3.37;;
3405;SDS011;10008;48.682;9.016;2022-10-23T16:52:45;8.50;;;3.57;;
3405;SDS011;10008;48.682;9.016;2022-10-23T16:55:11;14.97;;;12.90;;
3405;SDS011;10008;48.682;9.016;2022-10-23T16:57:36;6.53;;;3.23;;
3405;SDS011;10008;48.682;9.016;2022-10-23T17:00:03;11.20;;;7.67;;
3405;SDS011;10008;48.682;9.016;2022-10-23T17:02:29;8.30;;;4.67;;
3405;SDS011;10008;48.682;9.016;2022-10-23T17:04:55;12.70;;;3.20;;
3405;SDS011;10008;48.682;9.016;2022-10-23T17:07:21;5.70;;;2.10;;
3405;SDS011;10008;48.682;9.016;2022-10-23T17:09:47;5.27;;;2.33;;
3405;SDS011;10008;48.682;9.016;2022-10-23T17:12:13;6.00;;;3.63;;
3405;SDS011;10008;48.682;9.016;2022-10-23T17:14:41;7.80;;;2.60;;
3405;SDS011;10008;48.682;9.016;2022-10-23T17:17:07;5.17;;;2.13;;
3405;SDS011;10008;48.682;9.016;2022-10-23T17:19:34;6.17;;;2.30;;
3405;SDS011;10008;48.682;9.016;2022-10-23T17:22:02;8.50;;;2.67;;
3405;SDS011;10008;48.682;9.016;2022-10-23T17:24:32;5.50;;;2.00;;
3405;SDS011;10008;48.682;9.016;2022-10-23T17:26:57;5.50;;;2.67;;
3405;SDS011;10008;48.682;9.016;2022-10-23T17:29:23;8.93;;;3.20;;
3405;SDS011;10008;48.682;9.016;2022-10-23T17:31:49;7.80;;;3.07;;
3405;SDS011;10008;48.682;9.016;2022-10-23T17:34:17;11.17;;;5.10;;